createdAt,value
2019-04-07T00:00:38.134Z,98627.33
2019-04-07T00:03:12.879Z,98619.57
2019-04-07T00:05:47.205Z,98636.16
2019-04-07T00:08:21.670Z,98638.48
2019-04-07T00:10:57.850Z,98638.54
2019-04-07T00:13:50.361Z,98633.98
2019-04-07T00:16:46.148Z,98638.86
2019-04-07T00:19:20.808Z,98636.42
2019-04-07T00:21:55.707Z,98636.72
2019-04-07T00:24:29.601Z,98635.92
2019-04-07T00:27:04.258Z,98627.52
2019-04-07T00:29:39.338Z,98631.30
2019-04-07T00:32:14.128Z,98625.33
2019-04-07T00:34:48.165Z,98621.34
2019-04-07T00:37:23.996Z,98618.62
2019-04-07T00:39:57.730Z,98615.19
2019-04-07T00:42:32.615Z,98616.09
2019-04-07T00:45:08.676Z,98619.52
2019-04-07T00:47:44.920Z,98619.89
2019-04-07T00:50:18.632Z,98622.22
2019-04-07T00:52:53.203Z,98625.59
2019-04-07T00:55:28.603Z,98618.73
2019-04-07T00:58:02.660Z,98618.80
2019-04-07T01:00:36.617Z,98623.38
2019-04-07T01:03:11.524Z,98625.21
2019-04-07T01:05:48.673Z,98626.67
2019-04-07T01:08:22.822Z,98626.30
2019-04-07T01:10:57.295Z,98625.27
2019-04-07T01:13:33.668Z,98620.95
2019-04-07T01:16:09.757Z,98616.66
2019-04-07T01:18:44.368Z,98615.83
2019-04-07T01:21:20.295Z,98622.49
2019-04-07T01:23:54.527Z,98621.27
2019-04-07T01:26:29.215Z,98619.91
2019-04-07T01:29:09.211Z,98621.69
2019-04-07T01:31:44.233Z,98620.60
2019-04-07T01:34:18.603Z,98623.75
2019-04-07T01:36:52.231Z,98631.09
2019-04-07T01:39:27.343Z,98624.94
2019-04-07T01:42:01.927Z,98621.53
2019-04-07T01:44:35.695Z,98620.17
2019-04-07T01:47:11.320Z,98620.17
2019-04-07T01:49:45.266Z,98625.47
2019-04-07T01:52:19.600Z,98619.94
2019-04-07T01:54:53.666Z,98633.84
2019-04-07T01:57:28.983Z,98633.87
2019-04-07T02:00:04.565Z,98638.05
2019-04-07T02:02:39.178Z,98626.67
2019-04-07T02:05:14.313Z,98621.63
2019-04-07T02:07:48.963Z,98617.66
2019-04-07T02:10:22.909Z,98626.84
2019-04-07T02:12:56.779Z,98615.15
2019-04-07T02:15:30.546Z,98617.33
2019-04-07T02:18:04.175Z,98617.44
2019-04-07T02:20:48.995Z,98618.13
2019-04-07T02:23:22.801Z,98612.55
2019-04-07T02:25:56.882Z,98604.81
2019-04-07T02:28:30.891Z,98602.44
2019-04-07T02:31:04.783Z,98602.44
2019-04-07T02:33:39.763Z,98601.63
2019-04-07T02:36:21.355Z,98600.36
2019-04-07T02:38:50.162Z,98605.35
2019-04-07T02:41:24.102Z,98591.09
2019-04-07T02:43:57.866Z,98597.19
2019-04-07T02:46:31.518Z,98596.14
2019-04-07T02:49:05.929Z,98599.92
2019-04-07T02:51:40.338Z,98596.14
2019-04-07T02:54:14.076Z,98592.18
2019-04-07T02:56:48.447Z,98585.16
2019-04-07T02:59:23.095Z,98597.31
2019-04-07T03:01:58.236Z,98594.82
2019-04-07T03:04:33.822Z,98594.11
2019-04-07T03:07:07.994Z,98587.42
2019-04-07T03:09:42.211Z,98583.32
2019-04-07T03:12:15.965Z,98580.98
2019-04-07T03:14:50.804Z,98580.80
2019-04-07T03:17:25.853Z,98583.80
2019-04-07T03:20:00.688Z,98568.87
2019-04-07T03:22:34.995Z,98558.39
2019-04-07T03:25:15.383Z,98567.55
2019-04-07T03:27:48.640Z,98556.20
2019-04-07T03:30:25.188Z,98549.98
2019-04-07T03:33:01.137Z,98562.36
2019-04-07T03:35:37.706Z,98554.06
2019-04-07T03:38:13.899Z,98545.97
2019-04-07T03:40:49.636Z,98549.72
2019-04-07T03:43:24.173Z,98545.66
2019-04-07T03:45:59.069Z,98543.96
2019-04-07T03:48:33.459Z,98539.75
2019-04-07T03:51:08.962Z,98538.77
2019-04-07T03:53:43.934Z,98539.34
2019-04-07T03:56:20.133Z,98518.80
2019-04-07T03:58:55.762Z,98533.95
2019-04-07T04:01:31.515Z,98533.95
2019-04-07T04:04:06.041Z,98530.92
2019-04-07T04:06:40.772Z,98521.28
2019-04-07T04:09:15.477Z,98518.95
2019-04-07T04:11:53.582Z,98526.16
2019-04-07T04:14:27.698Z,98519.59
2019-04-07T04:17:02.229Z,98514.34
2019-04-07T04:19:36.328Z,98508.55
2019-04-07T04:22:10.545Z,98515.72
2019-04-07T04:24:44.726Z,98518.32
2019-04-07T04:27:18.641Z,98501.64
2019-04-07T04:29:53.415Z,98488.39
2019-04-07T04:32:28.738Z,98495.21
2019-04-07T04:35:03.198Z,98503.84
2019-04-07T04:37:44.370Z,98489.94
2019-04-07T04:40:11.797Z,98491.02
2019-04-07T04:43:04.835Z,98499.63
2019-04-07T04:45:40.529Z,98486.80
2019-04-07T04:48:15.515Z,98487.20
2019-04-07T04:50:50.416Z,98486.56
2019-04-07T04:53:25.656Z,98472.72
2019-04-07T04:55:59.527Z,98476.05
2019-04-07T04:58:33.617Z,98469.77
2019-04-07T05:01:09.640Z,98468.80
2019-04-07T05:03:43.487Z,98467.00
2019-04-07T05:06:17.934Z,98462.02
2019-04-07T05:08:54.875Z,98463.11
2019-04-07T05:11:31.569Z,98457.69
2019-04-07T05:14:05.924Z,98456.50
2019-04-07T05:16:39.967Z,98462.73
2019-04-07T05:19:14.425Z,98459.11
2019-04-07T05:21:48.469Z,98466.92
2019-04-07T05:24:22.483Z,98465.52
2019-04-07T05:26:57.396Z,98457.94
2019-04-07T05:29:31.220Z,98462.48
2019-04-07T05:32:06.892Z,98456.82
2019-04-07T05:34:41.173Z,98444.34
2019-04-07T05:37:14.942Z,98446.03
2019-04-07T05:39:48.799Z,98448.30
2019-04-07T05:42:23.390Z,98450.72
2019-04-07T05:44:58.571Z,98446.58
2019-04-07T05:47:32.023Z,98441.34
2019-04-07T05:50:06.380Z,98452.95
2019-04-07T05:52:40.822Z,98434.38
2019-04-07T05:55:15.194Z,98439.80
2019-04-07T05:57:52.000Z,98434.00
2019-04-07T06:00:25.996Z,98436.00
2019-04-07T06:03:04.513Z,98422.45
2019-04-07T06:05:38.598Z,98424.82
2019-04-07T06:08:24.592Z,98420.69
2019-04-07T06:10:50.007Z,98425.05
2019-04-07T06:13:24.739Z,98418.97
2019-04-07T06:16:00.470Z,98421.71
2019-04-07T06:18:36.800Z,98414.48
2019-04-07T06:21:14.134Z,98408.66
2019-04-07T06:23:46.227Z,98413.75
2019-04-07T06:26:20.929Z,98409.56
2019-04-07T06:28:58.475Z,98415.77
2019-04-07T06:31:33.023Z,98415.66
2019-04-07T06:34:10.081Z,98412.86
2019-04-07T06:36:41.551Z,98413.03
2019-04-07T06:39:17.218Z,98413.90
2019-04-07T06:41:50.565Z,98413.59
2019-04-07T06:44:26.144Z,98405.59
2019-04-07T06:47:03.481Z,98392.88
2019-04-07T06:49:35.606Z,98393.08
2019-04-07T06:52:09.477Z,98404.12
2019-04-07T06:54:43.833Z,98401.95
2019-04-07T06:57:18.472Z,98391.78
2019-04-07T06:59:52.469Z,98395.38
2019-04-07T07:02:27.016Z,98385.41
2019-04-07T07:05:05.208Z,98391.70
2019-04-07T07:07:38.901Z,98390.49
2019-04-07T07:10:26.841Z,98376.23
2019-04-07T07:13:00.069Z,98386.02
2019-04-07T07:15:34.554Z,98384.43
2019-04-07T07:18:08.945Z,98383.91
2019-04-07T07:20:46.163Z,98388.13
2019-04-07T07:23:20.876Z,98389.00
2019-04-07T07:25:55.579Z,98389.01
2019-04-07T07:28:29.973Z,98381.98
2019-04-07T07:31:05.317Z,98371.96
2019-04-07T07:33:42.445Z,98381.34
2019-04-07T07:36:17.982Z,98374.86
2019-04-07T07:38:59.088Z,98370.20
2019-04-07T07:41:26.841Z,98379.39
2019-04-07T07:44:03.604Z,98385.89
2019-04-07T07:46:38.597Z,98388.08
2019-04-07T07:49:13.613Z,98387.39
2019-04-07T07:51:48.678Z,98386.96
2019-04-07T07:54:22.969Z,98384.09
2019-04-07T07:56:58.050Z,98372.20
2019-04-07T07:59:37.844Z,98365.41
2019-04-07T08:02:11.881Z,98363.63
2019-04-07T08:04:49.920Z,98355.56
2019-04-07T08:07:23.701Z,98359.84
2019-04-07T08:09:58.035Z,98368.30
2019-04-07T08:12:34.703Z,98365.50
2019-04-07T08:15:09.829Z,98357.07
2019-04-07T08:17:45.266Z,98366.59
2019-04-07T08:20:19.942Z,98343.64
2019-04-07T08:22:54.176Z,98338.95
2019-04-07T08:25:29.165Z,98342.93
2019-04-07T08:28:06.146Z,98343.90
2019-04-07T08:30:43.969Z,98344.45
2019-04-07T08:33:18.952Z,98355.45
2019-04-07T08:35:56.057Z,98346.92
2019-04-07T08:38:31.069Z,98342.45
2019-04-07T08:41:08.187Z,98353.34
2019-04-07T08:43:42.349Z,98344.98
2019-04-07T08:46:18.802Z,98359.36
2019-04-07T08:48:56.523Z,98347.30
2019-04-07T08:51:32.367Z,98343.56
2019-04-07T08:54:07.192Z,98356.78
2019-04-07T08:56:42.239Z,98354.59
2019-04-07T08:59:18.272Z,98363.66
2019-04-07T09:01:54.324Z,98361.47
2019-04-07T09:04:30.881Z,98365.75
2019-04-07T09:07:05.982Z,98357.30
2019-04-07T09:09:45.736Z,98364.69
2019-04-07T09:12:19.315Z,98353.89
2019-04-07T09:14:55.641Z,98358.66
2019-04-07T09:17:39.910Z,98357.42
2019-04-07T09:20:12.250Z,98364.31
2019-04-07T09:22:47.522Z,98366.69
2019-04-07T09:25:22.646Z,98358.38
2019-04-07T09:27:58.314Z,98366.41
2019-04-07T09:30:34.034Z,98361.36
2019-04-07T09:33:09.618Z,98361.33
2019-04-07T09:35:52.033Z,98358.34
2019-04-07T09:38:30.448Z,98357.72
2019-04-07T09:41:08.478Z,98365.83
2019-04-07T09:43:51.778Z,98361.33
2019-04-07T09:46:27.549Z,98362.41
2019-04-07T09:49:03.378Z,98362.41
2019-04-07T09:51:41.341Z,98363.91
2019-04-07T09:54:17.629Z,98363.25
2019-04-07T09:56:51.873Z,98361.09
2019-04-07T09:59:26.570Z,98359.67
2019-04-07T10:02:02.196Z,98361.37
2019-04-07T10:04:38.648Z,98362.79
2019-04-07T10:07:15.341Z,98356.27
2019-04-07T10:10:03.637Z,98356.00
2019-04-07T10:12:30.133Z,98358.81
2019-04-07T10:15:05.410Z,98360.63
2019-04-07T10:17:43.118Z,98353.27
2019-04-07T10:20:23.148Z,98352.12
2019-04-07T10:22:58.982Z,98354.42
2019-04-07T10:25:36.403Z,98357.17
2019-04-07T10:28:12.609Z,98356.28
2019-04-07T10:30:48.385Z,98351.22
2019-04-07T10:33:23.867Z,98357.16
2019-04-07T10:35:59.030Z,98359.07
2019-04-07T10:38:39.207Z,98357.84
2019-04-07T10:41:14.063Z,98361.44
2019-04-07T10:43:48.828Z,98357.31
2019-04-07T10:46:23.555Z,98360.56
2019-04-07T10:48:57.763Z,98369.03
2019-04-07T10:51:36.455Z,98364.52
2019-04-07T10:54:14.026Z,98365.36
2019-04-07T10:56:49.789Z,98358.44
2019-04-07T10:59:25.578Z,98369.19
2019-04-07T11:02:01.307Z,98366.20
2019-04-07T11:04:40.836Z,98375.18
2019-04-07T11:07:17.498Z,98373.16
2019-04-07T11:09:52.065Z,98375.89
2019-04-07T11:12:27.567Z,98376.89
2019-04-07T11:15:02.929Z,98367.82
2019-04-07T11:17:38.312Z,98380.42
2019-04-07T11:20:14.966Z,98384.06
2019-04-07T11:22:50.131Z,98392.60
2019-04-07T11:25:28.364Z,98393.06
2019-04-07T11:28:11.121Z,98393.62
2019-04-07T11:30:45.426Z,98405.77
2019-04-07T11:33:20.857Z,98403.13
2019-04-07T11:35:55.712Z,98410.41
2019-04-07T11:38:35.262Z,98412.13
2019-04-07T11:41:10.180Z,98412.92
2019-04-07T11:43:46.868Z,98418.49
2019-04-07T11:46:27.884Z,98414.64
2019-04-07T11:49:04.990Z,98419.30
2019-04-07T11:51:40.627Z,98422.08
2019-04-07T11:54:16.400Z,98416.20
2019-04-07T11:56:53.444Z,98421.33
2019-04-07T11:59:29.928Z,98429.17
2019-04-07T12:02:07.392Z,98432.47
2019-04-07T12:04:43.629Z,98435.75
2019-04-07T12:07:20.315Z,98436.83
2019-04-07T12:09:55.191Z,98444.12
2019-04-07T12:12:32.250Z,98443.52
2019-04-07T12:15:09.461Z,98439.97
2019-04-07T12:17:45.023Z,98449.82
2019-04-07T12:20:29.914Z,98449.77
2019-04-07T12:23:03.660Z,98446.14
2019-04-07T12:25:40.251Z,98447.55
2019-04-07T12:28:17.776Z,98445.44
2019-04-07T12:30:52.828Z,98446.56
2019-04-07T12:33:28.539Z,98444.72
2019-04-07T12:36:11.773Z,98451.95
2019-04-07T12:38:47.869Z,98454.88
2019-04-07T12:41:23.410Z,98456.77
2019-04-07T12:43:59.518Z,98456.63
2019-04-07T12:46:37.671Z,98462.33
2019-04-07T12:49:13.333Z,98456.84
2019-04-07T12:51:53.057Z,98463.05
2019-04-07T12:54:24.885Z,98472.00
2019-04-07T12:57:05.339Z,98471.57
2019-04-07T12:59:39.336Z,98471.83
2019-04-07T13:02:17.909Z,98473.69
2019-04-07T13:04:59.730Z,98476.95
2019-04-07T13:07:48.423Z,98479.88
2019-04-07T13:10:21.542Z,98480.12
2019-04-07T13:12:59.333Z,98479.95
2019-04-07T13:15:35.620Z,98480.03
2019-04-07T13:18:16.426Z,98481.61
2019-04-07T13:20:57.863Z,98480.71
2019-04-07T13:23:34.733Z,98477.98
2019-04-07T13:26:10.816Z,98474.77
2019-04-07T13:28:47.892Z,98472.92
2019-04-07T13:31:24.433Z,98475.05
2019-04-07T13:34:01.718Z,98470.91
2019-04-07T13:36:35.829Z,98474.60
2019-04-07T13:39:13.966Z,98477.53
2019-04-07T13:41:53.327Z,98476.95
2019-04-07T13:44:28.244Z,98470.16
2019-04-07T13:47:06.261Z,98480.53
2019-04-07T13:49:39.982Z,98483.34
2019-04-07T13:52:19.384Z,98483.81
2019-04-07T13:54:52.589Z,98481.33
2019-04-07T13:57:28.023Z,98483.23
2019-04-07T14:00:04.072Z,98486.25
2019-04-07T14:02:39.966Z,98487.34
2019-04-07T14:05:17.939Z,98493.82
2019-04-07T14:07:57.066Z,98490.33
2019-04-07T14:10:36.500Z,98487.41
2019-04-07T14:13:09.332Z,98492.32
2019-04-07T14:15:44.326Z,98490.66
2019-04-07T14:18:21.597Z,98483.37
2019-04-07T14:20:57.788Z,98486.92
2019-04-07T14:23:33.078Z,98490.99
2019-04-07T14:26:10.273Z,98479.56
2019-04-07T14:28:45.793Z,98488.73
2019-04-07T14:31:20.771Z,98480.86
2019-04-07T14:33:55.603Z,98475.83
2019-04-07T14:36:30.149Z,98478.53
2019-04-07T14:39:05.267Z,98480.73
2019-04-07T14:41:41.312Z,98476.72
2019-04-07T14:44:18.229Z,98474.02
2019-04-07T14:46:52.414Z,98480.23
2019-04-07T14:49:27.883Z,98476.47
2019-04-07T14:52:02.557Z,98478.42
2019-04-07T14:54:38.776Z,98479.23
2019-04-07T14:57:15.528Z,98472.72
2019-04-07T14:59:52.111Z,98478.72
2019-04-07T15:02:26.360Z,98478.44
2019-04-07T15:05:01.819Z,98470.82
2019-04-07T15:07:36.642Z,98475.92
2019-04-07T15:10:16.526Z,98471.86
2019-04-07T15:12:50.205Z,98470.02
2019-04-07T15:15:26.782Z,98474.34
2019-04-07T15:18:01.310Z,98483.78
2019-04-07T15:20:35.604Z,98477.31
2019-04-07T15:23:11.060Z,98481.88
2019-04-07T15:25:46.999Z,98470.75
2019-04-07T15:28:21.553Z,98474.21
2019-04-07T15:30:56.845Z,98479.88
2019-04-07T15:33:38.535Z,98485.33
2019-04-07T15:36:12.794Z,98490.20
2019-04-07T15:38:47.532Z,98490.15
2019-04-07T15:41:22.285Z,98492.85
2019-04-07T15:43:57.265Z,98492.07
2019-04-07T15:46:30.885Z,98497.96
2019-04-07T15:49:07.632Z,98505.25
2019-04-07T15:51:43.115Z,98500.89
2019-04-07T15:54:20.158Z,98509.60
2019-04-07T15:56:55.049Z,98514.67
2019-04-07T15:59:30.345Z,98510.40
2019-04-07T16:02:08.465Z,98509.48
2019-04-07T16:04:41.871Z,98506.27
2019-04-07T16:07:18.335Z,98504.95
2019-04-07T16:09:56.588Z,98502.25
2019-04-07T16:12:28.721Z,98507.66
2019-04-07T16:15:02.463Z,98499.82
2019-04-07T16:17:37.182Z,98496.84
2019-04-07T16:20:22.163Z,98496.30
2019-04-07T16:22:51.190Z,98511.69
2019-04-07T16:25:27.628Z,98517.69
2019-04-07T16:27:59.631Z,98519.55
2019-04-07T16:30:40.649Z,98527.97
2019-04-07T16:33:16.404Z,98526.86
2019-04-07T16:35:55.635Z,98523.85
2019-04-07T16:38:31.788Z,98522.75
2019-04-07T16:41:06.444Z,98524.38
2019-04-07T16:43:42.042Z,98530.61
2019-04-07T16:46:22.440Z,98536.59
2019-04-07T16:48:52.225Z,98535.73
2019-04-07T16:51:27.718Z,98533.16
2019-04-07T16:54:01.441Z,98537.80
2019-04-07T16:56:35.347Z,98537.44
2019-04-07T16:59:10.183Z,98544.48
2019-04-07T17:01:45.587Z,98549.92
2019-04-07T17:04:20.065Z,98547.25
2019-04-07T17:07:01.650Z,98546.59
2019-04-07T17:09:33.147Z,98551.94
2019-04-07T17:12:09.344Z,98545.36
2019-04-07T17:14:42.561Z,98549.84
2019-04-07T17:17:20.324Z,98548.23
2019-04-07T17:19:51.547Z,98554.93
2019-04-07T17:22:25.444Z,98557.47
2019-04-07T17:25:01.466Z,98562.63
2019-04-07T17:27:35.212Z,98560.41
2019-04-07T17:30:17.241Z,98567.94
2019-04-07T17:32:52.059Z,98570.17
2019-04-07T17:35:27.511Z,98571.45
2019-04-07T17:38:05.177Z,98576.07
2019-04-07T17:40:37.796Z,98575.26
2019-04-07T17:43:11.850Z,98579.46
2019-04-07T17:45:46.172Z,98578.59
2019-04-07T17:48:21.371Z,98575.55
2019-04-07T17:50:55.299Z,98567.66
2019-04-07T17:53:29.634Z,98575.87
2019-04-07T17:56:03.604Z,98584.84
2019-04-07T17:58:39.431Z,98579.58
2019-04-07T18:01:12.718Z,98582.48
2019-04-07T18:03:47.318Z,98587.92
2019-04-07T18:06:21.527Z,98589.33
2019-04-07T18:09:05.992Z,98590.68
2019-04-07T18:11:30.549Z,98600.00
2019-04-07T18:14:05.744Z,98594.38
2019-04-07T18:16:39.603Z,98597.95
2019-04-07T18:19:14.085Z,98599.05
2019-04-07T18:21:51.939Z,98595.97
2019-04-07T18:24:22.708Z,98599.37
2019-04-07T18:26:56.560Z,98603.86
2019-04-07T18:29:31.891Z,98597.59
2019-04-07T18:32:05.102Z,98602.03
2019-04-07T18:34:39.690Z,98612.63
2019-04-07T18:37:13.449Z,98606.33
2019-04-07T18:39:52.351Z,98612.02
2019-04-07T18:42:22.004Z,98616.45
2019-04-07T18:44:55.586Z,98623.44
2019-04-07T18:47:31.518Z,98626.71
2019-04-07T18:50:07.594Z,98632.20
2019-04-07T18:52:40.979Z,98633.27
2019-04-07T18:55:14.851Z,98640.45
2019-04-07T18:57:48.849Z,98641.69
2019-04-07T19:00:22.654Z,98646.33
2019-04-07T19:02:56.536Z,98653.99
2019-04-07T19:05:33.394Z,98650.71
2019-04-07T19:08:05.178Z,98658.67
2019-04-07T19:10:38.951Z,98658.18
2019-04-07T19:13:17.105Z,98664.16
2019-04-07T19:15:47.775Z,98671.72
2019-04-07T19:18:22.487Z,98672.77
2019-04-07T19:20:56.108Z,98676.86
2019-04-07T19:23:30.240Z,98679.95
2019-04-07T19:26:04.237Z,98680.96
2019-04-07T19:28:38.279Z,98681.54
2019-04-07T19:31:16.246Z,98688.02
2019-04-07T19:33:47.392Z,98689.42
2019-04-07T19:36:23.664Z,98688.31
2019-04-07T19:38:56.174Z,98693.61
2019-04-07T19:41:32.220Z,98685.03
2019-04-07T19:44:04.827Z,98695.06
2019-04-07T19:46:38.583Z,98688.69
2019-04-07T19:49:15.038Z,98689.30
2019-04-07T19:51:48.262Z,98688.30
2019-04-07T19:54:22.124Z,98693.95
2019-04-07T19:56:55.572Z,98697.06
2019-04-07T19:59:30.103Z,98691.95
2019-04-07T20:02:03.771Z,98692.13
2019-04-07T20:04:37.384Z,98693.41
2019-04-07T20:07:10.924Z,98695.09
2019-04-07T20:09:46.789Z,98702.51
2019-04-07T20:12:20.743Z,98706.31
2019-04-07T20:15:01.331Z,98707.85
2019-04-07T20:17:29.918Z,98711.25
2019-04-07T20:20:04.136Z,98715.75
2019-04-07T20:22:38.086Z,98718.30
2019-04-07T20:25:16.005Z,98718.05
2019-04-07T20:27:47.006Z,98725.55
2019-04-07T20:30:21.250Z,98729.26
2019-04-07T20:32:56.751Z,98731.35
2019-04-07T20:35:31.491Z,98725.95
2019-04-07T20:38:06.187Z,98725.97
2019-04-07T20:40:44.061Z,98722.52
2019-04-07T20:43:15.346Z,98731.09
2019-04-07T20:45:50.045Z,98729.97
2019-04-07T20:48:23.739Z,98731.78
2019-04-07T20:50:58.268Z,98728.59
2019-04-07T20:53:33.689Z,98731.44
2019-04-07T20:56:11.548Z,98737.33
2019-04-07T20:58:48.729Z,98736.11
2019-04-07T21:01:22.013Z,98743.66
2019-04-07T21:03:53.064Z,98746.99
2019-04-07T21:06:29.513Z,98751.41
2019-04-07T21:09:02.757Z,98751.67
2019-04-07T21:11:37.662Z,98758.48
2019-04-07T21:14:11.394Z,98753.33
2019-04-07T21:16:45.205Z,98764.09
2019-04-07T21:19:18.792Z,98767.61
2019-04-07T21:21:54.031Z,98773.48
2019-04-07T21:24:27.664Z,98769.48
2019-04-07T21:27:02.453Z,98780.30
2019-04-07T21:29:38.580Z,98774.45
2019-04-07T21:32:10.833Z,98777.36
2019-04-07T21:34:44.992Z,98778.18
2019-04-07T21:37:18.693Z,98783.70
2019-04-07T21:39:53.874Z,98786.23
2019-04-07T21:42:27.456Z,98783.44
2019-04-07T21:45:04.273Z,98788.47
2019-04-07T21:47:36.534Z,98794.16
2019-04-07T21:50:15.882Z,98803.47
2019-04-07T21:52:52.937Z,98804.02
2019-04-07T21:55:25.347Z,98809.43
2019-04-07T21:57:59.773Z,98807.02
2019-04-07T22:00:34.859Z,98806.55
2019-04-07T22:03:08.844Z,98807.61
2019-04-07T22:05:43.272Z,98811.00
2019-04-07T22:08:19.071Z,98808.30
2019-04-07T22:10:53.731Z,98819.36
2019-04-07T22:13:32.885Z,98823.88
2019-04-07T22:16:04.256Z,98827.92
2019-04-07T22:18:42.973Z,98828.69
2019-04-07T22:21:19.169Z,98834.44
2019-04-07T22:23:55.012Z,98835.17
2019-04-07T22:26:28.448Z,98838.56
2019-04-07T22:29:03.868Z,98843.11
2019-04-07T22:31:38.730Z,98849.86
2019-04-07T22:34:14.735Z,98858.52
2019-04-07T22:36:47.966Z,98866.27
2019-04-07T22:39:22.574Z,98867.25
2019-04-07T22:41:57.091Z,98867.95
2019-04-07T22:44:35.533Z,98872.49
2019-04-07T22:47:12.016Z,98874.36
2019-04-07T22:49:45.141Z,98879.64
2019-04-07T22:52:18.937Z,98887.30
2019-04-07T22:54:52.637Z,98888.63
2019-04-07T22:57:27.123Z,98886.53
2019-04-07T23:00:02.393Z,98884.39
2019-04-07T23:02:36.127Z,98893.75
2019-04-07T23:05:10.002Z,98899.38
2019-04-07T23:07:43.811Z,98907.08
2019-04-07T23:10:17.748Z,98902.03
2019-04-07T23:12:51.326Z,98904.59
2019-04-07T23:15:37.257Z,98908.80
2019-04-07T23:17:59.906Z,98908.64
2019-04-07T23:20:33.639Z,98914.04
2019-04-07T23:23:07.098Z,98913.84
2019-04-07T23:25:40.728Z,98916.40
2019-04-07T23:28:14.570Z,98916.69
2019-04-07T23:30:49.194Z,98917.88
2019-04-07T23:33:22.976Z,98920.95
2019-04-07T23:35:59.868Z,98919.05
2019-04-07T23:38:34.599Z,98928.67
2019-04-07T23:41:10.118Z,98929.59
2019-04-07T23:43:43.936Z,98930.14
2019-04-07T23:46:23.139Z,98936.45
2019-04-07T23:48:53.905Z,98941.08
2019-04-07T23:51:28.785Z,98941.38
2019-04-07T23:54:19.493Z,98943.15
2019-04-07T23:56:54.013Z,98946.76
2019-04-07T23:59:29.107Z,98949.52
